Westbrook, Texas
Current Conditions -  °F | °C
As of 10:55 PM on Saturday 22 Nov 2014 (Local Time) from KSNK Reporting Station
Moderate Fog Moderate Fog  
Wind Chill: 52°   Ceiling: 100
Heat Index: 52°   Visibility: 0.5mi
Dew Point: 52°   Wind: 13mph
Humidity: 99%   Direction: 180°S
Pressure: 29.76"   Gusts: NA
Location:  32.36°N, 101.01°W
Report Text: KSNK 230455Z AUTO 18011KT 1/2SM FG OVC001 11/11 A2976 RMK AO2 T01120111
Loading
Personal Weather Stations






























Interactive Weather Map New forecast layout! Learn more

10-Day Weather Forecast

Advertisements
Track Severe Weather on mobile